Terminal Aerodrome Forecast
Issued by NWS Wilmington, OH

Home | Current Version | Previous Version | Text Only | Print | Product List | Glossary On
Versions: 1 2 3 4 5 6 7 8 9 10 11 12 13 14 15 16 17 18 19 20 21 22 23 24 25 26 27 28 29 30 31 32 33
000
FTUS41 KILN 011100 AAA
TAFILN
TAF AMD
KILN 011143Z 0112/0212 14006KT 4SM -SN BKN020 OVC040
     FM011230 13010KT P6SM SCT050 OVC100
     FM012100 15010KT 2SM -RA SCT008 OVC012
      TEMPO 0200/0204 23010KT 1SM -RA BKN008 OVC010
     FM020500 29014G24KT P6SM OVC018
      TEMPO 0205/0208 5SM -SNRA OVC010=

USA.gov is the U.S. government's official web portal to all federal, state and local government web resources and services.